createdAt,value
2019-05-07T00:00:12.581Z,8.70
2019-05-07T00:01:12.292Z,8.69
2019-05-07T00:02:10.461Z,8.67
2019-05-07T00:03:12.310Z,8.67
2019-05-07T00:04:10.388Z,8.73
2019-05-07T00:05:12.040Z,8.70
2019-05-07T00:06:12.262Z,8.67
2019-05-07T00:07:10.281Z,8.70
2019-05-07T00:08:12.180Z,8.74
2019-05-07T00:09:12.193Z,8.73
2019-05-07T00:10:10.177Z,8.70
2019-05-07T00:11:10.137Z,8.63
2019-05-07T00:12:12.436Z,8.69
2019-05-07T00:13:10.067Z,8.66
2019-05-07T00:14:10.027Z,8.69
2019-05-07T00:15:12.491Z,8.70
2019-05-07T00:16:09.962Z,8.69
2019-05-07T00:17:09.921Z,8.70
2019-05-07T00:18:09.889Z,8.70
2019-05-07T00:19:09.854Z,8.69
2019-05-07T00:20:09.822Z,8.73
2019-05-07T00:21:09.789Z,8.69
2019-05-07T00:22:09.747Z,8.81
2019-05-07T00:23:09.708Z,8.81
2019-05-07T00:24:09.677Z,8.70
2019-05-07T00:25:09.639Z,8.73
2019-05-07T00:26:09.605Z,8.66
2019-05-07T00:27:09.565Z,8.66
2019-05-07T00:28:09.525Z,8.74
2019-05-07T00:29:09.499Z,8.71
2019-05-07T00:30:09.459Z,8.55
2019-05-07T00:31:09.420Z,8.69
2019-05-07T00:32:09.393Z,8.64
2019-05-07T00:33:09.355Z,8.64
2019-05-07T00:34:09.315Z,8.55
2019-05-07T00:35:09.284Z,8.60
2019-05-07T00:36:09.251Z,8.48
2019-05-07T00:37:09.207Z,8.42
2019-05-07T00:38:09.170Z,8.48
2019-05-07T00:39:09.136Z,8.42
2019-05-07T00:40:09.105Z,8.36
2019-05-07T00:41:09.061Z,8.41
2019-05-07T00:42:09.033Z,8.34
2019-05-07T00:43:08.995Z,8.42
2019-05-07T00:44:09.308Z,8.34
2019-05-07T00:45:16.928Z,8.37
2019-05-07T00:46:08.886Z,8.26
2019-05-07T00:47:08.850Z,8.26
2019-05-07T00:48:08.821Z,8.23
2019-05-07T00:49:08.779Z,8.30
2019-05-07T00:50:08.747Z,8.26
2019-05-07T00:51:08.705Z,8.23
2019-05-07T00:52:11.414Z,8.20
2019-05-07T00:53:08.630Z,8.16
2019-05-07T00:54:08.600Z,8.19
2019-05-07T00:55:08.565Z,8.18
2019-05-07T00:56:08.526Z,8.01
2019-05-07T00:57:08.496Z,8.06
2019-05-07T00:58:08.453Z,8.05
2019-05-07T00:59:08.410Z,8.03
2019-05-07T01:00:08.381Z,7.95
2019-05-07T01:01:08.351Z,7.82
2019-05-07T01:02:08.308Z,7.73
2019-05-07T01:03:08.271Z,7.76
2019-05-07T01:04:08.245Z,7.76
2019-05-07T01:05:08.200Z,7.75
2019-05-07T01:06:08.161Z,7.75
2019-05-07T01:07:08.124Z,7.67
2019-05-07T01:08:08.086Z,7.63
2019-05-07T01:09:08.060Z,7.79
2019-05-07T01:10:08.015Z,7.80
2019-05-07T01:11:07.973Z,7.73
2019-05-07T01:12:07.951Z,7.70
2019-05-07T01:13:07.903Z,7.91
2019-05-07T01:14:07.867Z,7.83
2019-05-07T01:15:07.831Z,7.73
2019-05-07T01:16:07.798Z,7.77
2019-05-07T01:17:07.760Z,7.75
2019-05-07T01:18:07.723Z,7.85
2019-05-07T01:19:07.692Z,7.79
2019-05-07T01:20:07.659Z,7.88
2019-05-07T01:21:07.617Z,7.76
2019-05-07T01:22:07.582Z,7.77
2019-05-07T01:23:07.547Z,7.83
2019-05-07T01:24:07.513Z,7.83
2019-05-07T01:25:07.468Z,7.80
2019-05-07T01:26:07.445Z,7.79
2019-05-07T01:27:07.403Z,7.79
2019-05-07T01:28:07.364Z,7.73
2019-05-07T01:29:07.326Z,7.80
2019-05-07T01:30:07.292Z,7.79
2019-05-07T01:31:07.257Z,7.79
2019-05-07T01:32:07.219Z,7.63
2019-05-07T01:33:07.189Z,7.61
2019-05-07T01:34:07.144Z,7.58
2019-05-07T01:35:07.114Z,7.69
2019-05-07T01:36:07.074Z,7.66
2019-05-07T01:37:07.037Z,7.66
2019-05-07T01:38:07.002Z,7.75
2019-05-07T01:39:06.967Z,7.75
2019-05-07T01:40:06.923Z,7.73
2019-05-07T01:41:06.894Z,7.90
2019-05-07T01:42:06.863Z,7.80
2019-05-07T01:43:06.827Z,7.79
2019-05-07T01:44:06.782Z,7.79
2019-05-07T01:45:06.742Z,7.82
2019-05-07T01:46:06.709Z,7.85
2019-05-07T01:47:06.677Z,7.85
2019-05-07T01:48:06.638Z,7.82
2019-05-07T01:49:06.603Z,7.79
2019-05-07T01:50:06.563Z,7.87
2019-05-07T01:51:06.532Z,7.87
2019-05-07T01:52:06.489Z,7.93
2019-05-07T01:53:06.469Z,7.98
2019-05-07T01:54:06.417Z,7.94
2019-05-07T01:55:06.384Z,7.97
2019-05-07T01:56:06.358Z,7.98
2019-05-07T01:57:06.323Z,8.00
2019-05-07T01:58:06.276Z,8.03
2019-05-07T01:59:06.259Z,8.01
2019-05-07T02:00:06.205Z,8.09
2019-05-07T02:01:06.169Z,8.06
2019-05-07T02:02:06.135Z,8.08
2019-05-07T02:03:06.105Z,8.06
2019-05-07T02:04:06.057Z,8.08
2019-05-07T02:05:06.025Z,8.08
2019-05-07T02:06:05.986Z,8.05
2019-05-07T02:07:05.959Z,8.08
2019-05-07T02:08:05.916Z,8.08
2019-05-07T02:09:05.880Z,8.06
2019-05-07T02:10:05.845Z,8.09
2019-05-07T02:11:05.809Z,8.03
2019-05-07T02:12:05.765Z,8.06
2019-05-07T02:13:05.730Z,7.97
2019-05-07T02:14:05.700Z,7.87
2019-05-07T02:15:05.660Z,7.95
2019-05-07T02:16:05.629Z,7.91
2019-05-07T02:17:05.586Z,7.93
2019-05-07T02:18:05.552Z,7.95
2019-05-07T02:19:05.532Z,7.95
2019-05-07T02:20:05.476Z,7.97
2019-05-07T02:21:05.442Z,8.08
2019-05-07T02:22:05.415Z,7.97
2019-05-07T02:23:05.376Z,7.98
2019-05-07T02:24:05.336Z,8.00
2019-05-07T02:25:05.296Z,8.00
2019-05-07T02:26:05.265Z,8.06
2019-05-07T02:27:05.227Z,8.03
2019-05-07T02:28:05.192Z,8.03
2019-05-07T02:29:05.156Z,8.05
2019-05-07T02:30:05.121Z,8.08
2019-05-07T02:31:05.097Z,8.09
2019-05-07T02:32:05.125Z,8.09
2019-05-07T02:33:05.024Z,8.08
2019-05-07T02:34:04.973Z,8.08
2019-05-07T02:35:04.948Z,8.08
2019-05-07T02:36:04.919Z,8.09
2019-05-07T02:37:04.861Z,8.09
2019-05-07T02:38:04.857Z,8.03
2019-05-07T02:39:04.794Z,8.16
2019-05-07T02:40:04.761Z,8.05
2019-05-07T02:41:04.723Z,8.03
2019-05-07T02:42:04.686Z,8.08
2019-05-07T02:43:04.653Z,8.05
2019-05-07T02:44:04.638Z,8.05
2019-05-07T02:45:04.803Z,8.09
2019-05-07T02:46:21.543Z,8.03
2019-05-07T02:47:04.513Z,8.01
2019-05-07T02:48:04.478Z,8.05
2019-05-07T02:49:04.458Z,7.94
2019-05-07T02:50:04.401Z,7.97
2019-05-07T02:51:04.406Z,7.97
2019-05-07T02:52:04.335Z,7.95
2019-05-07T02:53:04.450Z,8.03
2019-05-07T02:54:04.248Z,8.00
2019-05-07T02:55:04.422Z,8.03
2019-05-07T02:56:04.183Z,8.03
2019-05-07T02:57:04.155Z,8.05
2019-05-07T02:58:04.114Z,7.95
2019-05-07T02:59:04.274Z,7.93
2019-05-07T03:00:04.770Z,7.95
2019-05-07T03:01:05.082Z,7.91
2019-05-07T03:02:03.971Z,7.98
2019-05-07T03:03:04.512Z,7.98
2019-05-07T03:04:03.906Z,7.93
2019-05-07T03:05:05.349Z,7.94
2019-05-07T03:06:03.812Z,8.00
2019-05-07T03:07:04.093Z,8.03
2019-05-07T03:08:03.757Z,8.01
2019-05-07T03:09:03.702Z,8.03
2019-05-07T03:10:03.945Z,8.08
2019-05-07T03:11:03.821Z,8.09
2019-05-07T03:12:04.087Z,8.01
2019-05-07T03:13:03.565Z,8.03
2019-05-07T03:14:03.549Z,8.03
2019-05-07T03:15:04.462Z,8.00
2019-05-07T03:16:03.953Z,8.06
2019-05-07T03:17:03.444Z,8.10
2019-05-07T03:18:03.797Z,8.09
2019-05-07T03:19:04.211Z,8.01
2019-05-07T03:20:03.332Z,8.03
2019-05-07T03:21:03.580Z,8.01
2019-05-07T03:22:03.933Z,8.01
2019-05-07T03:23:03.325Z,8.06
2019-05-07T03:24:03.719Z,7.98
2019-05-07T03:25:03.561Z,7.97
2019-05-07T03:26:04.171Z,7.95
2019-05-07T03:27:03.538Z,8.01
2019-05-07T03:28:04.348Z,7.95
2019-05-07T03:29:03.905Z,8.05
2019-05-07T03:30:04.213Z,7.95
2019-05-07T03:31:05.791Z,7.90
2019-05-07T03:32:05.925Z,7.88
2019-05-07T03:33:07.021Z,7.93
2019-05-07T03:34:06.955Z,7.87
2019-05-07T03:35:06.543Z,7.90
2019-05-07T03:36:06.969Z,7.90
2019-05-07T03:37:06.290Z,7.91
2019-05-07T03:38:03.662Z,7.83
2019-05-07T03:39:03.461Z,7.93
2019-05-07T03:40:03.974Z,7.91
2019-05-07T03:41:03.781Z,7.91
2019-05-07T03:42:03.362Z,7.87
2019-05-07T03:43:05.834Z,7.90
2019-05-07T03:44:03.701Z,7.94
2019-05-07T03:45:03.706Z,7.83
2019-05-07T03:46:03.607Z,7.91
2019-05-07T03:47:06.313Z,7.91
2019-05-07T03:48:03.687Z,7.95
2019-05-07T03:49:04.000Z,7.93
2019-05-07T03:50:03.361Z,7.98
2019-05-07T03:51:03.753Z,7.97
2019-05-07T03:52:04.261Z,7.94
2019-05-07T03:53:02.742Z,7.94
2019-05-07T03:54:03.099Z,7.94
2019-05-07T03:55:03.659Z,7.97
2019-05-07T03:56:04.202Z,7.97
2019-05-07T03:57:10.275Z,7.94
2019-05-07T03:58:03.187Z,7.93
2019-05-07T03:59:03.639Z,7.98
2019-05-07T04:00:04.284Z,7.97
2019-05-07T04:01:04.399Z,8.06
2019-05-07T04:02:03.351Z,8.08
2019-05-07T04:03:03.656Z,8.05
2019-05-07T04:04:03.755Z,8.05
2019-05-07T04:05:04.210Z,8.12
2019-05-07T04:06:03.911Z,8.06
2019-05-07T04:07:03.378Z,8.08
2019-05-07T04:08:03.314Z,8.10
2019-05-07T04:09:03.461Z,8.08
2019-05-07T04:10:04.393Z,8.03
2019-05-07T04:11:03.599Z,8.08
2019-05-07T04:12:03.969Z,8.09
2019-05-07T04:13:04.405Z,8.06
2019-05-07T04:14:02.636Z,8.05
2019-05-07T04:15:03.458Z,8.10
2019-05-07T04:16:03.964Z,8.06
2019-05-07T04:17:16.578Z,8.03
2019-05-07T04:18:03.683Z,8.08
2019-05-07T04:19:03.881Z,8.23
2019-05-07T04:20:04.281Z,8.19
2019-05-07T04:21:03.822Z,8.19
2019-05-07T04:22:04.056Z,8.18
2019-05-07T04:23:04.009Z,8.18
2019-05-07T04:24:03.519Z,8.15
2019-05-07T04:25:04.151Z,8.20
2019-05-07T04:26:03.872Z,8.28
2019-05-07T04:27:03.767Z,8.18
2019-05-07T04:28:03.580Z,8.30
2019-05-07T04:29:04.782Z,8.27
2019-05-07T04:30:03.665Z,8.24
2019-05-07T04:31:02.908Z,8.23
2019-05-07T04:32:03.255Z,8.19
2019-05-07T04:33:03.374Z,8.23
2019-05-07T04:34:03.423Z,8.23
2019-05-07T04:35:03.604Z,8.26
2019-05-07T04:36:02.824Z,8.23
2019-05-07T04:37:03.193Z,8.23
2019-05-07T04:38:03.389Z,8.24
2019-05-07T04:39:02.971Z,8.28
2019-05-07T04:40:03.018Z,8.23
2019-05-07T04:41:03.593Z,8.31
2019-05-07T04:42:03.421Z,8.20
2019-05-07T04:43:02.596Z,8.19
2019-05-07T04:44:03.149Z,8.24
2019-05-07T04:45:00.239Z,8.27
2019-05-07T04:46:02.846Z,8.26
2019-05-07T04:47:00.174Z,8.27
2019-05-07T04:48:02.805Z,8.30
2019-05-07T04:49:00.093Z,8.26
2019-05-07T04:50:03.552Z,8.16
2019-05-07T04:51:00.025Z,8.19
2019-05-07T04:51:59.998Z,8.20
2019-05-07T04:53:02.645Z,8.30
2019-05-07T04:53:59.920Z,8.24
2019-05-07T04:54:59.875Z,8.31
2019-05-07T04:56:03.051Z,8.27
2019-05-07T04:56:59.809Z,8.26
2019-05-07T04:58:02.756Z,8.24
2019-05-07T04:58:59.739Z,8.33
2019-05-07T05:00:02.957Z,8.37
2019-05-07T05:00:59.671Z,8.36
2019-05-07T05:01:59.625Z,8.28
2019-05-07T05:02:59.589Z,8.41
2019-05-07T05:03:59.554Z,8.38
2019-05-07T05:04:59.519Z,8.42
2019-05-07T05:06:02.454Z,8.30
2019-05-07T05:06:59.452Z,8.37
2019-05-07T05:07:59.407Z,8.42
2019-05-07T05:08:59.398Z,8.30
2019-05-07T05:10:07.988Z,8.48
2019-05-07T05:12:03.744Z,8.37
2019-05-07T05:13:03.684Z,8.46
2019-05-07T05:14:07.473Z,8.42
2019-05-07T05:15:03.612Z,8.48
2019-05-07T05:16:03.571Z,8.38
2019-05-07T05:17:03.539Z,8.45
2019-05-07T05:18:03.506Z,8.49
2019-05-07T05:19:03.486Z,8.45
2019-05-07T05:20:03.726Z,8.48
2019-05-07T05:21:03.397Z,8.55
2019-05-07T05:22:03.356Z,8.56
2019-05-07T05:23:03.322Z,8.56
2019-05-07T05:24:03.287Z,8.67
2019-05-07T05:25:03.262Z,8.61
2019-05-07T05:26:03.210Z,8.52
2019-05-07T05:27:03.182Z,8.66
2019-05-07T05:28:03.141Z,8.66
2019-05-07T05:29:03.104Z,8.71
2019-05-07T05:30:03.172Z,8.67
2019-05-07T05:31:03.446Z,8.70
2019-05-07T05:32:02.995Z,8.76
2019-05-07T05:33:04.413Z,8.70
2019-05-07T05:34:02.932Z,8.71
2019-05-07T05:35:03.393Z,8.79
2019-05-07T05:36:03.164Z,8.79
2019-05-07T05:37:02.813Z,8.78
2019-05-07T05:38:03.103Z,8.78
2019-05-07T05:39:02.758Z,8.79
2019-05-07T05:40:08.167Z,8.81
2019-05-07T05:41:02.961Z,8.79
2019-05-07T05:42:02.641Z,8.81
2019-05-07T05:43:02.601Z,8.82
2019-05-07T05:44:02.571Z,8.71
2019-05-07T05:45:02.529Z,8.76
2019-05-07T05:46:02.825Z,8.88
2019-05-07T05:47:02.531Z,8.85
2019-05-07T05:48:07.508Z,8.88
2019-05-07T05:49:02.700Z,8.92
2019-05-07T05:50:02.344Z,8.89
2019-05-07T05:51:02.733Z,8.94
2019-05-07T05:52:02.291Z,8.91
2019-05-07T05:53:02.703Z,8.99
2019-05-07T05:54:02.213Z,8.91
2019-05-07T05:55:02.587Z,9.03
2019-05-07T05:56:02.430Z,9.00
2019-05-07T05:57:02.646Z,8.95
2019-05-07T05:58:02.675Z,9.03
2019-05-07T05:59:02.824Z,9.10
2019-05-07T06:00:02.512Z,9.04
2019-05-07T06:01:02.553Z,9.06
2019-05-07T06:02:05.946Z,9.11
2019-05-07T06:03:02.507Z,9.10
2019-05-07T06:04:03.008Z,9.13
2019-05-07T06:05:02.291Z,9.23
2019-05-07T06:06:02.026Z,9.25
2019-05-07T06:07:11.125Z,9.26
2019-05-07T06:08:03.714Z,9.28
2019-05-07T06:09:01.985Z,9.37
2019-05-07T06:10:02.549Z,9.32
2019-05-07T06:11:02.274Z,9.31
2019-05-07T06:12:02.750Z,9.34
2019-05-07T06:13:01.838Z,9.43
2019-05-07T06:14:02.262Z,9.43
2019-05-07T06:15:01.827Z,9.32
2019-05-07T06:16:03.110Z,9.37
2019-05-07T06:17:02.083Z,9.44
2019-05-07T06:18:02.723Z,9.43
2019-05-07T06:19:02.017Z,9.43
2019-05-07T06:20:02.964Z,9.44
2019-05-07T06:21:02.985Z,9.51
2019-05-07T06:22:02.128Z,9.55
2019-05-07T06:23:01.977Z,9.55
2019-05-07T06:24:02.234Z,9.51
2019-05-07T06:25:02.363Z,9.62
2019-05-07T06:26:04.676Z,9.58
2019-05-07T06:27:02.932Z,9.59
2019-05-07T06:28:01.948Z,9.61
2019-05-07T06:29:02.411Z,9.73
2019-05-07T06:30:04.508Z,9.66
2019-05-07T06:31:02.153Z,9.74
2019-05-07T06:32:02.657Z,9.77
2019-05-07T06:33:02.786Z,9.68
2019-05-07T06:34:01.865Z,9.82
2019-05-07T06:35:02.930Z,9.80
2019-05-07T06:36:02.683Z,9.82
2019-05-07T06:37:02.331Z,9.87
2019-05-07T06:38:02.756Z,9.94
2019-05-07T06:39:01.954Z,9.98
2019-05-07T06:40:02.618Z,9.91
2019-05-07T06:41:02.540Z,9.98
2019-05-07T06:42:02.066Z,9.95
2019-05-07T06:43:00.477Z,10.01
2019-05-07T06:44:02.053Z,10.02
2019-05-07T06:45:02.784Z,10.05
2019-05-07T06:46:01.939Z,10.05
2019-05-07T06:47:02.323Z,10.05
2019-05-07T06:48:00.317Z,10.16
2019-05-07T06:49:02.171Z,10.16
2019-05-07T06:50:00.226Z,10.10
2019-05-07T06:51:00.202Z,10.22
2019-05-07T06:52:00.174Z,10.19
2019-05-07T06:53:02.395Z,10.22
2019-05-07T06:54:00.090Z,10.20
2019-05-07T06:55:00.064Z,10.25
2019-05-07T06:56:00.031Z,10.10
2019-05-07T06:57:02.038Z,10.07
2019-05-07T06:57:59.966Z,10.23
2019-05-07T06:59:02.082Z,10.26
2019-05-07T06:59:59.888Z,10.37
2019-05-07T07:01:02.203Z,10.26
2019-05-07T07:02:02.204Z,10.28
2019-05-07T07:03:01.914Z,10.28
2019-05-07T07:03:59.752Z,10.23
2019-05-07T07:04:59.731Z,10.28
2019-05-07T07:05:59.681Z,10.33
2019-05-07T07:07:01.781Z,10.23
2019-05-07T07:07:59.603Z,10.26
2019-05-07T07:09:01.752Z,10.31
2019-05-07T07:09:59.539Z,10.37
2019-05-07T07:10:59.502Z,10.34
2019-05-07T07:11:59.468Z,10.41
2019-05-07T07:12:59.444Z,10.41
2019-05-07T07:13:59.397Z,10.44
2019-05-07T07:14:59.367Z,10.48
2019-05-07T07:15:59.329Z,10.54
2019-05-07T07:16:59.293Z,10.59
2019-05-07T07:17:59.272Z,10.68
2019-05-07T07:18:59.228Z,10.64
2019-05-07T07:19:59.191Z,10.64
2019-05-07T07:20:59.155Z,10.69
2019-05-07T07:21:59.133Z,10.68
2019-05-07T07:22:59.088Z,10.59
2019-05-07T07:23:59.054Z,10.68
2019-05-07T07:24:59.018Z,10.75
2019-05-07T07:25:58.983Z,10.79
2019-05-07T07:26:58.950Z,10.82
2019-05-07T07:27:58.914Z,10.86
2019-05-07T07:28:58.879Z,10.92
2019-05-07T07:29:58.846Z,10.92
2019-05-07T07:30:58.828Z,10.93
2019-05-07T07:31:58.775Z,10.87
2019-05-07T07:32:58.750Z,10.90
2019-05-07T07:33:58.714Z,10.99
2019-05-07T07:34:58.675Z,11.05
2019-05-07T07:35:58.645Z,11.02
2019-05-07T07:37:06.191Z,10.75
2019-05-07T07:37:58.570Z,10.64
2019-05-07T07:38:58.541Z,10.69
2019-05-07T07:39:58.508Z,10.84
2019-05-07T07:40:58.475Z,10.93
2019-05-07T07:41:58.431Z,10.86
2019-05-07T07:42:58.400Z,10.92
2019-05-07T07:43:58.381Z,10.82
2019-05-07T07:44:58.335Z,10.51
2019-05-07T07:45:58.300Z,10.54
2019-05-07T07:46:58.265Z,10.60
2019-05-07T07:47:58.231Z,10.71
2019-05-07T07:49:09.811Z,10.81
2019-05-07T07:49:58.159Z,10.97
2019-05-07T07:50:58.121Z,10.86
2019-05-07T07:51:58.099Z,10.90
2019-05-07T07:52:58.066Z,11.11
2019-05-07T07:53:58.026Z,10.87
2019-05-07T07:54:57.997Z,10.75
2019-05-07T07:55:57.966Z,10.81
2019-05-07T07:56:57.925Z,10.75
2019-05-07T07:57:57.896Z,10.79
2019-05-07T07:58:57.855Z,10.90
2019-05-07T07:59:57.820Z,11.11
2019-05-07T08:00:57.790Z,11.23
2019-05-07T08:01:57.753Z,11.47
2019-05-07T08:02:57.726Z,11.54
2019-05-07T08:03:57.687Z,11.57
2019-05-07T08:04:57.655Z,11.65
2019-05-07T08:05:57.612Z,11.63
2019-05-07T08:06:57.581Z,11.77
2019-05-07T08:07:57.559Z,11.77
2019-05-07T08:08:57.506Z,11.80
2019-05-07T08:09:57.483Z,11.84
2019-05-07T08:10:57.451Z,11.83
2019-05-07T08:11:57.428Z,11.80
2019-05-07T08:12:57.394Z,11.84
2019-05-07T08:13:57.347Z,11.97
2019-05-07T08:15:13.576Z,11.99
2019-05-07T08:15:57.279Z,12.02
2019-05-07T08:16:57.262Z,12.00
2019-05-07T08:17:57.223Z,12.06
2019-05-07T08:18:57.191Z,12.15
2019-05-07T08:19:57.155Z,12.22
2019-05-07T08:20:57.116Z,12.17
2019-05-07T08:21:57.082Z,12.25
2019-05-07T08:22:57.048Z,12.29
2019-05-07T08:23:57.014Z,12.37
2019-05-07T08:24:56.989Z,12.49
2019-05-07T08:25:56.941Z,12.49
2019-05-07T08:26:56.923Z,12.53
2019-05-07T08:27:58.205Z,12.49
2019-05-07T08:28:56.841Z,12.42
2019-05-07T08:29:56.819Z,12.45
2019-05-07T08:30:56.779Z,12.62
2019-05-07T08:31:56.741Z,12.61
2019-05-07T08:32:56.718Z,12.67
2019-05-07T08:33:56.685Z,12.78
2019-05-07T08:34:56.647Z,12.83
2019-05-07T08:35:56.627Z,12.76
2019-05-07T08:36:56.590Z,12.75
2019-05-07T08:37:56.551Z,12.79
2019-05-07T08:38:56.524Z,12.80
2019-05-07T08:39:56.491Z,12.80
2019-05-07T08:40:56.448Z,12.79
2019-05-07T08:41:56.418Z,12.82
2019-05-07T08:42:56.391Z,12.85
2019-05-07T08:44:08.300Z,12.86
2019-05-07T08:44:56.426Z,12.83
2019-05-07T08:45:56.285Z,12.93
2019-05-07T08:46:56.257Z,12.90
2019-05-07T08:47:56.232Z,12.95
2019-05-07T08:48:56.199Z,12.95
2019-05-07T08:49:56.158Z,12.98
2019-05-07T08:50:56.139Z,13.01
2019-05-07T08:51:56.107Z,13.04
2019-05-07T08:52:56.059Z,13.08
2019-05-07T08:53:56.043Z,13.08
2019-05-07T08:54:55.992Z,13.11
2019-05-07T08:55:55.968Z,13.05
2019-05-07T08:56:55.937Z,13.13
2019-05-07T08:57:55.903Z,13.16
2019-05-07T08:58:55.870Z,13.25
2019-05-07T09:00:01.060Z,13.13
2019-05-07T09:00:55.801Z,13.25
2019-05-07T09:01:55.761Z,13.09
2019-05-07T09:02:55.729Z,13.01
2019-05-07T09:03:55.699Z,13.01
2019-05-07T09:04:55.669Z,13.04
2019-05-07T09:05:55.629Z,13.08
2019-05-07T09:06:55.605Z,13.19
2019-05-07T09:07:55.580Z,13.11
2019-05-07T09:08:55.543Z,13.19
2019-05-07T09:09:55.503Z,13.20
2019-05-07T09:10:55.470Z,13.38
2019-05-07T09:11:55.441Z,13.35
2019-05-07T09:12:55.396Z,13.15
2019-05-07T09:13:55.371Z,12.98
2019-05-07T09:14:55.343Z,13.12
2019-05-07T09:15:55.308Z,13.03
2019-05-07T09:16:55.285Z,12.91
2019-05-07T09:17:55.239Z,12.91
2019-05-07T09:18:55.204Z,12.91
2019-05-07T09:19:55.182Z,13.00
2019-05-07T09:20:55.148Z,13.09
2019-05-07T09:21:55.115Z,13.11
2019-05-07T09:22:55.079Z,13.00
2019-05-07T09:23:55.044Z,12.86
2019-05-07T09:24:55.019Z,12.79
2019-05-07T09:25:54.986Z,12.79
2019-05-07T09:26:54.952Z,12.87
2019-05-07T09:27:54.921Z,12.98
2019-05-07T09:28:54.892Z,13.15
2019-05-07T09:29:54.849Z,13.09
2019-05-07T09:30:54.822Z,13.23
2019-05-07T09:31:54.789Z,13.22
2019-05-07T09:32:54.754Z,13.27
2019-05-07T09:33:54.726Z,13.35
2019-05-07T09:34:54.691Z,13.42
2019-05-07T09:35:54.656Z,13.44
2019-05-07T09:36:54.627Z,13.54
2019-05-07T09:37:54.586Z,13.62
2019-05-07T09:38:58.992Z,13.59
2019-05-07T09:39:54.521Z,13.68
2019-05-07T09:40:56.969Z,13.62
2019-05-07T09:41:54.460Z,13.60
2019-05-07T09:42:54.430Z,13.56
2019-05-07T09:43:54.395Z,13.52
2019-05-07T09:44:54.366Z,13.57
2019-05-07T09:45:54.331Z,13.65
2019-05-07T09:46:54.303Z,13.62
2019-05-07T09:47:54.262Z,13.49
2019-05-07T09:48:54.235Z,13.52
2019-05-07T09:50:03.914Z,13.38
2019-05-07T09:50:54.177Z,13.35
2019-05-07T09:51:54.135Z,13.46
2019-05-07T09:52:54.106Z,13.60
2019-05-07T09:53:54.068Z,13.70
2019-05-07T09:54:54.043Z,13.67
2019-05-07T09:55:54.003Z,13.79
2019-05-07T09:56:53.977Z,13.93
2019-05-07T09:57:53.937Z,14.00
2019-05-07T09:58:53.913Z,14.05
2019-05-07T09:59:53.886Z,14.04
2019-05-07T10:00:53.838Z,14.11
2019-05-07T10:01:53.813Z,14.11
2019-05-07T10:02:56.624Z,14.25
2019-05-07T10:03:53.747Z,14.28
2019-05-07T10:04:53.717Z,14.30
2019-05-07T10:05:53.699Z,14.43
2019-05-07T10:06:53.654Z,14.50
2019-05-07T10:07:53.632Z,14.48
2019-05-07T10:08:53.588Z,14.33
2019-05-07T10:09:53.568Z,14.37
2019-05-07T10:10:53.537Z,14.51
2019-05-07T10:11:53.497Z,14.66
2019-05-07T10:12:53.489Z,14.66
2019-05-07T10:13:53.438Z,14.77
2019-05-07T10:14:53.407Z,14.70
2019-05-07T10:15:53.373Z,14.85
2019-05-07T10:16:53.344Z,14.81
2019-05-07T10:17:53.309Z,14.99
2019-05-07T10:18:53.279Z,14.97
2019-05-07T10:19:53.241Z,14.73
2019-05-07T10:20:53.213Z,14.50
2019-05-07T10:21:53.179Z,14.51
2019-05-07T10:22:53.152Z,14.33
2019-05-07T10:23:53.123Z,14.22
2019-05-07T10:24:53.090Z,14.30
2019-05-07T10:25:53.065Z,14.37
2019-05-07T10:26:53.219Z,14.44
2019-05-07T10:27:53.333Z,14.55
2019-05-07T10:28:52.966Z,14.55
2019-05-07T10:29:53.097Z,14.60
2019-05-07T10:30:52.908Z,14.63
2019-05-07T10:31:52.891Z,14.68
2019-05-07T10:32:52.928Z,14.60
2019-05-07T10:33:52.815Z,14.70
2019-05-07T10:34:52.764Z,14.73
2019-05-07T10:35:53.075Z,14.70
2019-05-07T10:36:52.715Z,14.77
2019-05-07T10:37:53.001Z,14.60
2019-05-07T10:38:52.648Z,14.54
2019-05-07T10:39:52.626Z,14.32
2019-05-07T10:40:52.599Z,14.32
2019-05-07T10:41:52.558Z,14.32
2019-05-07T10:42:52.525Z,14.04
2019-05-07T10:43:52.497Z,14.10
2019-05-07T10:44:52.549Z,14.17
2019-05-07T10:45:52.420Z,14.22
2019-05-07T10:46:52.654Z,13.99
2019-05-07T10:47:52.369Z,13.92
2019-05-07T10:48:52.334Z,13.99
2019-05-07T10:49:52.662Z,14.03
2019-05-07T10:50:52.268Z,14.03
2019-05-07T10:51:52.229Z,13.95
2019-05-07T10:52:52.867Z,14.07
2019-05-07T10:53:52.181Z,14.14
2019-05-07T10:54:59.701Z,14.25
2019-05-07T10:55:52.107Z,14.30
2019-05-07T10:56:52.476Z,14.37
2019-05-07T10:57:52.830Z,14.32
2019-05-07T10:58:52.320Z,14.25
2019-05-07T10:59:52.345Z,14.35
2019-05-07T11:00:52.353Z,14.50
2019-05-07T11:01:52.099Z,14.32
2019-05-07T11:02:51.958Z,14.20
2019-05-07T11:03:51.874Z,14.33
2019-05-07T11:04:53.251Z,14.37
2019-05-07T11:05:51.796Z,14.50
2019-05-07T11:06:52.305Z,14.62
2019-05-07T11:07:53.721Z,14.68
2019-05-07T11:08:51.965Z,14.54
2019-05-07T11:09:52.478Z,14.55
2019-05-07T11:10:52.184Z,14.58
2019-05-07T11:11:51.888Z,14.73
2019-05-07T11:12:51.813Z,14.70
2019-05-07T11:13:55.782Z,14.54
2019-05-07T11:14:51.739Z,14.54
2019-05-07T11:15:51.832Z,14.62
2019-05-07T11:16:52.106Z,14.54
2019-05-07T11:17:52.109Z,14.53
2019-05-07T11:18:51.812Z,14.51
2019-05-07T11:19:51.354Z,14.45
2019-05-07T11:20:53.492Z,14.44
2019-05-07T11:21:52.135Z,14.59
2019-05-07T11:22:52.204Z,14.55
2019-05-07T11:23:52.169Z,14.62
2019-05-07T11:24:52.226Z,14.62
2019-05-07T11:25:52.665Z,14.66
2019-05-07T11:26:53.005Z,14.48
2019-05-07T11:27:52.357Z,14.59
2019-05-07T11:28:51.078Z,14.54
2019-05-07T11:29:51.043Z,14.53
2019-05-07T11:30:51.028Z,14.54
2019-05-07T11:31:52.493Z,14.54
2019-05-07T11:32:52.239Z,14.58
2019-05-07T11:33:52.095Z,14.54
2019-05-07T11:34:53.170Z,14.43
2019-05-07T11:35:52.741Z,14.29
2019-05-07T11:36:52.406Z,14.25
2019-05-07T11:37:52.082Z,14.25
2019-05-07T11:38:52.665Z,14.32
2019-05-07T11:39:52.343Z,14.28
2019-05-07T11:40:51.799Z,14.37
2019-05-07T11:41:51.797Z,14.40
2019-05-07T11:42:51.967Z,14.30
2019-05-07T11:43:53.921Z,14.17
2019-05-07T11:44:52.154Z,14.25
2019-05-07T11:45:54.027Z,14.08
2019-05-07T11:46:52.590Z,14.14
2019-05-07T11:47:50.468Z,13.93
2019-05-07T11:48:50.442Z,13.97
2019-05-07T11:49:52.422Z,14.04
2019-05-07T11:51:01.473Z,14.04
2019-05-07T11:51:51.658Z,14.08
2019-05-07T11:52:51.781Z,14.17
2019-05-07T11:53:52.067Z,14.12
2019-05-07T11:54:52.081Z,14.14
2019-05-07T11:55:52.240Z,14.15
2019-05-07T11:56:52.267Z,14.26
2019-05-07T11:57:51.837Z,14.23
2019-05-07T11:58:52.820Z,14.29
2019-05-07T11:59:51.662Z,14.28
2019-05-07T12:00:50.059Z,14.08
2019-05-07T12:01:50.019Z,14.08
2019-05-07T12:02:51.565Z,14.23
2019-05-07T12:03:51.929Z,14.29
2019-05-07T12:04:49.938Z,14.37
2019-05-07T12:05:49.906Z,14.40
2019-05-07T12:06:51.977Z,14.51
2019-05-07T12:07:49.842Z,14.62
2019-05-07T12:08:51.928Z,14.78
2019-05-07T12:09:49.775Z,14.91
2019-05-07T12:10:51.684Z,14.96
2019-05-07T12:11:51.927Z,14.96
2019-05-07T12:12:49.680Z,14.97
2019-05-07T12:13:49.655Z,15.07
2019-05-07T12:14:51.658Z,15.35
2019-05-07T12:15:51.604Z,15.58
2019-05-07T12:16:49.558Z,15.76
2019-05-07T12:17:49.535Z,15.88
2019-05-07T12:18:49.494Z,15.92
2019-05-07T12:19:49.460Z,15.92
2019-05-07T12:20:49.432Z,15.97
2019-05-07T12:21:49.395Z,15.91
2019-05-07T12:22:49.379Z,15.83
2019-05-07T12:23:49.344Z,15.91
2019-05-07T12:24:49.317Z,15.95
2019-05-07T12:25:49.284Z,16.04
2019-05-07T12:26:49.254Z,16.09
2019-05-07T12:27:49.223Z,16.12
2019-05-07T12:28:49.189Z,15.97
2019-05-07T12:29:49.166Z,15.86
2019-05-07T12:30:49.122Z,15.92
2019-05-07T12:31:49.109Z,16.00
2019-05-07T12:32:49.075Z,16.05
2019-05-07T12:33:49.052Z,16.04
2019-05-07T12:34:49.005Z,16.08
2019-05-07T12:35:48.980Z,16.15
2019-05-07T12:36:48.946Z,16.29
2019-05-07T12:37:49.650Z,16.26
2019-05-07T12:38:48.887Z,16.47
2019-05-07T12:39:48.849Z,16.61
2019-05-07T12:40:48.826Z,16.68
2019-05-07T12:41:48.796Z,16.51
2019-05-07T12:42:48.763Z,16.41
2019-05-07T12:43:48.742Z,16.41
2019-05-07T12:44:48.716Z,16.49
2019-05-07T12:45:48.667Z,16.32
2019-05-07T12:46:48.649Z,16.31
2019-05-07T12:47:48.613Z,16.26
2019-05-07T12:48:48.606Z,16.29
2019-05-07T12:49:48.554Z,16.29
2019-05-07T12:50:48.527Z,16.35
2019-05-07T12:51:48.493Z,16.36
2019-05-07T12:52:48.469Z,16.35
2019-05-07T12:53:48.437Z,16.36
2019-05-07T12:54:48.412Z,16.10
2019-05-07T12:55:48.387Z,16.20
2019-05-07T12:56:48.346Z,16.13
2019-05-07T12:57:48.312Z,16.17
2019-05-07T12:58:48.279Z,16.20
2019-05-07T12:59:49.671Z,16.15
2019-05-07T13:00:48.231Z,16.16
2019-05-07T13:01:48.187Z,16.23
2019-05-07T13:02:48.153Z,16.08
2019-05-07T13:03:48.136Z,16.09
2019-05-07T13:04:48.108Z,16.13
2019-05-07T13:05:48.071Z,16.20